sensor_id;sensor_type;location;lat;lon;timestamp;P1;durP1;ratioP1;P2;durP2;ratioP2
13014;SDS011;6573;57.696;11.950;2023-01-30T00:01:20;41.30;;;6.80;;
13014;SDS011;6573;57.696;11.950;2023-01-30T00:03:51;38.30;;;6.53;;
13014;SDS011;6573;57.696;11.950;2023-01-30T00:06:20;51.57;;;7.83;;
13014;SDS011;6573;57.696;11.950;2023-01-30T00:08:48;44.57;;;8.23;;
13014;SDS011;6573;57.696;11.950;2023-01-30T00:11:17;48.17;;;8.10;;
13014;SDS011;6573;57.696;11.950;2023-01-30T00:13:47;47.87;;;8.00;;
13014;SDS011;6573;57.696;11.950;2023-01-30T00:16:16;45.07;;;7.67;;
13014;SDS011;6573;57.696;11.950;2023-01-30T00:18:45;45.40;;;8.20;;
13014;SDS011;6573;57.696;11.950;2023-01-30T00:21:15;60.97;;;9.77;;
13014;SDS011;6573;57.696;11.950;2023-01-30T00:23:43;52.40;;;9.13;;
13014;SDS011;6573;57.696;11.950;2023-01-30T00:26:12;51.47;;;9.07;;
13014;SDS011;6573;57.696;11.950;2023-01-30T00:28:40;58.10;;;9.93;;
13014;SDS011;6573;57.696;11.950;2023-01-30T00:31:09;52.57;;;10.00;;
13014;SDS011;6573;57.696;11.950;2023-01-30T00:33:37;60.30;;;9.93;;
13014;SDS011;6573;57.696;11.950;2023-01-30T00:36:06;56.90;;;9.47;;
13014;SDS011;6573;57.696;11.950;2023-01-30T00:38:36;53.50;;;9.10;;
13014;SDS011;6573;57.696;11.950;2023-01-30T00:41:04;50.23;;;8.83;;
13014;SDS011;6573;57.696;11.950;2023-01-30T00:43:32;39.57;;;7.77;;
13014;SDS011;6573;57.696;11.950;2023-01-30T00:46:23;35.23;;;6.57;;
13014;SDS011;6573;57.696;11.950;2023-01-30T00:49:19;31.13;;;5.43;;
13014;SDS011;6573;57.696;11.950;2023-01-30T00:51:48;30.07;;;6.10;;
13014;SDS011;6573;57.696;11.950;2023-01-30T00:54:18;26.77;;;5.47;;
13014;SDS011;6573;57.696;11.950;2023-01-30T00:56:46;30.00;;;5.70;;
13014;SDS011;6573;57.696;11.950;2023-01-30T00:59:14;32.77;;;6.00;;
13014;SDS011;6573;57.696;11.950;2023-01-30T01:01:43;27.83;;;5.47;;
13014;SDS011;6573;57.696;11.950;2023-01-30T01:04:11;35.53;;;6.30;;
13014;SDS011;6573;57.696;11.950;2023-01-30T01:06:40;30.77;;;6.13;;
13014;SDS011;6573;57.696;11.950;2023-01-30T01:09:08;30.47;;;6.40;;
13014;SDS011;6573;57.696;11.950;2023-01-30T01:11:37;35.03;;;7.23;;
13014;SDS011;6573;57.696;11.950;2023-01-30T01:14:06;36.47;;;7.13;;
13014;SDS011;6573;57.696;11.950;2023-01-30T01:16:34;28.27;;;5.80;;
13014;SDS011;6573;57.696;11.950;2023-01-30T01:19:03;33.80;;;5.33;;
13014;SDS011;6573;57.696;11.950;2023-01-30T01:21:35;34.73;;;6.07;;
13014;SDS011;6573;57.696;11.950;2023-01-30T01:24:03;45.03;;;7.17;;
13014;SDS011;6573;57.696;11.950;2023-01-30T01:26:32;35.93;;;7.63;;
13014;SDS011;6573;57.696;11.950;2023-01-30T01:29:01;39.30;;;7.10;;
13014;SDS011;6573;57.696;11.950;2023-01-30T01:31:30;36.33;;;6.97;;
13014;SDS011;6573;57.696;11.950;2023-01-30T01:33:58;35.33;;;6.17;;
13014;SDS011;6573;57.696;11.950;2023-01-30T01:36:26;35.03;;;7.03;;
13014;SDS011;6573;57.696;11.950;2023-01-30T01:39:15;37.37;;;7.00;;
13014;SDS011;6573;57.696;11.950;2023-01-30T01:41:43;38.87;;;7.30;;
13014;SDS011;6573;57.696;11.950;2023-01-30T01:44:12;39.40;;;7.20;;
13014;SDS011;6573;57.696;11.950;2023-01-30T01:46:43;42.87;;;8.13;;
13014;SDS011;6573;57.696;11.950;2023-01-30T01:49:20;40.43;;;7.57;;
13014;SDS011;6573;57.696;11.950;2023-01-30T01:51:53;41.90;;;7.57;;
13014;SDS011;6573;57.696;11.950;2023-01-30T01:54:25;49.77;;;8.10;;
13014;SDS011;6573;57.696;11.950;2023-01-30T01:56:59;42.93;;;7.67;;
13014;SDS011;6573;57.696;11.950;2023-01-30T01:59:33;42.73;;;7.73;;
13014;SDS011;6573;57.696;11.950;2023-01-30T02:02:06;34.60;;;6.70;;
13014;SDS011;6573;57.696;11.950;2023-01-30T02:04:37;46.10;;;7.87;;
13014;SDS011;6573;57.696;11.950;2023-01-30T02:07:30;54.57;;;8.40;;
13014;SDS011;6573;57.696;11.950;2023-01-30T02:10:04;39.60;;;6.77;;
13014;SDS011;6573;57.696;11.950;2023-01-30T02:12:35;40.97;;;7.77;;
13014;SDS011;6573;57.696;11.950;2023-01-30T02:15:09;42.30;;;7.77;;
13014;SDS011;6573;57.696;11.950;2023-01-30T02:17:38;45.63;;;7.40;;
13014;SDS011;6573;57.696;11.950;2023-01-30T02:20:08;40.67;;;7.83;;
13014;SDS011;6573;57.696;11.950;2023-01-30T02:22:54;42.40;;;8.33;;
13014;SDS011;6573;57.696;11.950;2023-01-30T02:29:01;39.23;;;7.67;;
13014;SDS011;6573;57.696;11.950;2023-01-30T02:31:52;44.90;;;7.33;;
13014;SDS011;6573;57.696;11.950;2023-01-30T02:34:32;36.40;;;6.50;;
13014;SDS011;6573;57.696;11.950;2023-01-30T02:37:11;34.47;;;6.03;;
13014;SDS011;6573;57.696;11.950;2023-01-30T02:39:53;30.03;;;6.53;;
13014;SDS011;6573;57.696;11.950;2023-01-30T02:42:36;37.80;;;7.60;;
13014;SDS011;6573;57.696;11.950;2023-01-30T02:45:11;36.80;;;6.83;;
13014;SDS011;6573;57.696;11.950;2023-01-30T02:47:48;34.87;;;6.23;;
13014;SDS011;6573;57.696;11.950;2023-01-30T02:50:24;25.77;;;5.67;;
13014;SDS011;6573;57.696;11.950;2023-01-30T02:52:56;21.07;;;5.00;;
13014;SDS011;6573;57.696;11.950;2023-01-30T02:55:26;29.97;;;6.70;;
13014;SDS011;6573;57.696;11.950;2023-01-30T02:57:55;34.77;;;5.90;;
13014;SDS011;6573;57.696;11.950;2023-01-30T03:00:27;29.37;;;5.27;;
13014;SDS011;6573;57.696;11.950;2023-01-30T03:03:24;28.93;;;6.07;;
13014;SDS011;6573;57.696;11.950;2023-01-30T03:06:10;36.47;;;7.30;;
13014;SDS011;6573;57.696;11.950;2023-01-30T03:09:03;42.70;;;7.50;;
13014;SDS011;6573;57.696;11.950;2023-01-30T03:11:42;40.73;;;8.10;;
13014;SDS011;6573;57.696;11.950;2023-01-30T03:14:19;34.67;;;6.80;;
13014;SDS011;6573;57.696;11.950;2023-01-30T03:16:53;35.20;;;7.00;;
13014;SDS011;6573;57.696;11.950;2023-01-30T03:19:26;30.47;;;6.20;;
13014;SDS011;6573;57.696;11.950;2023-01-30T03:21:56;31.90;;;6.93;;
13014;SDS011;6573;57.696;11.950;2023-01-30T03:24:24;29.90;;;5.93;;
13014;SDS011;6573;57.696;11.950;2023-01-30T03:26:53;30.40;;;5.93;;
13014;SDS011;6573;57.696;11.950;2023-01-30T03:29:25;28.33;;;5.13;;
13014;SDS011;6573;57.696;11.950;2023-01-30T03:31:53;26.37;;;5.13;;
13014;SDS011;6573;57.696;11.950;2023-01-30T03:34:22;35.23;;;5.80;;
13014;SDS011;6573;57.696;11.950;2023-01-30T03:36:52;27.30;;;5.57;;
13014;SDS011;6573;57.696;11.950;2023-01-30T03:39:21;31.63;;;5.20;;
13014;SDS011;6573;57.696;11.950;2023-01-30T03:41:50;28.67;;;5.43;;
13014;SDS011;6573;57.696;11.950;2023-01-30T03:44:20;30.13;;;5.63;;
13014;SDS011;6573;57.696;11.950;2023-01-30T03:46:48;29.47;;;5.33;;
13014;SDS011;6573;57.696;11.950;2023-01-30T03:49:16;35.00;;;6.10;;
13014;SDS011;6573;57.696;11.950;2023-01-30T03:51:44;25.63;;;5.60;;
13014;SDS011;6573;57.696;11.950;2023-01-30T03:54:14;35.73;;;5.90;;
13014;SDS011;6573;57.696;11.950;2023-01-30T03:56:42;30.53;;;5.83;;
13014;SDS011;6573;57.696;11.950;2023-01-30T03:59:10;32.60;;;6.20;;
13014;SDS011;6573;57.696;11.950;2023-01-30T04:01:39;32.60;;;6.40;;
13014;SDS011;6573;57.696;11.950;2023-01-30T04:04:07;36.03;;;6.07;;
13014;SDS011;6573;57.696;11.950;2023-01-30T04:06:35;37.40;;;6.47;;
13014;SDS011;6573;57.696;11.950;2023-01-30T04:09:03;33.50;;;6.33;;
13014;SDS011;6573;57.696;11.950;2023-01-30T04:11:33;32.97;;;5.73;;
13014;SDS011;6573;57.696;11.950;2023-01-30T04:14:03;26.60;;;5.00;;
13014;SDS011;6573;57.696;11.950;2023-01-30T04:16:31;25.57;;;4.67;;
13014;SDS011;6573;57.696;11.950;2023-01-30T04:19:00;23.40;;;4.60;;
13014;SDS011;6573;57.696;11.950;2023-01-30T04:21:28;22.07;;;4.07;;
13014;SDS011;6573;57.696;11.950;2023-01-30T04:23:56;22.97;;;4.00;;
13014;SDS011;6573;57.696;11.950;2023-01-30T04:26:24;23.60;;;3.83;;
13014;SDS011;6573;57.696;11.950;2023-01-30T04:28:55;20.43;;;4.63;;
13014;SDS011;6573;57.696;11.950;2023-01-30T04:31:23;23.50;;;3.90;;
13014;SDS011;6573;57.696;11.950;2023-01-30T04:33:54;18.83;;;4.07;;
13014;SDS011;6573;57.696;11.950;2023-01-30T04:36:22;21.20;;;4.37;;
13014;SDS011;6573;57.696;11.950;2023-01-30T04:38:52;24.07;;;4.17;;
13014;SDS011;6573;57.696;11.950;2023-01-30T04:41:23;20.77;;;3.73;;
13014;SDS011;6573;57.696;11.950;2023-01-30T04:43:52;19.93;;;4.23;;
13014;SDS011;6573;57.696;11.950;2023-01-30T04:46:21;21.30;;;4.40;;
13014;SDS011;6573;57.696;11.950;2023-01-30T04:48:50;21.57;;;4.20;;
13014;SDS011;6573;57.696;11.950;2023-01-30T04:51:18;25.17;;;4.73;;
13014;SDS011;6573;57.696;11.950;2023-01-30T04:53:46;19.23;;;4.50;;
13014;SDS011;6573;57.696;11.950;2023-01-30T04:56:14;26.73;;;4.23;;
13014;SDS011;6573;57.696;11.950;2023-01-30T04:58:42;23.03;;;4.80;;
13014;SDS011;6573;57.696;11.950;2023-01-30T05:01:11;28.30;;;5.20;;
13014;SDS011;6573;57.696;11.950;2023-01-30T05:03:42;21.80;;;4.90;;
13014;SDS011;6573;57.696;11.950;2023-01-30T05:06:10;29.43;;;5.13;;
13014;SDS011;6573;57.696;11.950;2023-01-30T05:08:38;32.03;;;5.27;;
13014;SDS011;6573;57.696;11.950;2023-01-30T05:11:07;29.77;;;5.40;;
13014;SDS011;6573;57.696;11.950;2023-01-30T05:13:35;25.77;;;5.07;;
13014;SDS011;6573;57.696;11.950;2023-01-30T05:16:03;32.03;;;5.57;;
13014;SDS011;6573;57.696;11.950;2023-01-30T05:18:32;26.17;;;5.03;;
13014;SDS011;6573;57.696;11.950;2023-01-30T05:21:06;34.90;;;5.57;;
13014;SDS011;6573;57.696;11.950;2023-01-30T05:23:35;30.80;;;5.40;;
13014;SDS011;6573;57.696;11.950;2023-01-30T05:26:04;32.87;;;5.90;;
13014;SDS011;6573;57.696;11.950;2023-01-30T05:28:32;22.67;;;4.53;;
13014;SDS011;6573;57.696;11.950;2023-01-30T05:31:01;20.93;;;3.90;;
13014;SDS011;6573;57.696;11.950;2023-01-30T05:33:31;21.93;;;4.13;;
13014;SDS011;6573;57.696;11.950;2023-01-30T05:35:59;21.43;;;4.00;;
13014;SDS011;6573;57.696;11.950;2023-01-30T05:38:30;22.60;;;4.43;;
13014;SDS011;6573;57.696;11.950;2023-01-30T05:40:58;29.50;;;4.80;;
13014;SDS011;6573;57.696;11.950;2023-01-30T05:43:27;26.97;;;4.33;;
13014;SDS011;6573;57.696;11.950;2023-01-30T05:45:58;26.83;;;4.70;;
13014;SDS011;6573;57.696;11.950;2023-01-30T05:48:27;29.93;;;5.10;;
13014;SDS011;6573;57.696;11.950;2023-01-30T05:50:56;28.10;;;4.80;;
13014;SDS011;6573;57.696;11.950;2023-01-30T05:53:26;22.50;;;4.63;;
13014;SDS011;6573;57.696;11.950;2023-01-30T05:55:56;24.70;;;4.87;;
13014;SDS011;6573;57.696;11.950;2023-01-30T05:58:26;25.67;;;4.73;;
13014;SDS011;6573;57.696;11.950;2023-01-30T06:00:58;20.47;;;4.23;;
13014;SDS011;6573;57.696;11.950;2023-01-30T06:03:28;23.23;;;4.77;;
13014;SDS011;6573;57.696;11.950;2023-01-30T06:05:59;21.50;;;4.90;;
13014;SDS011;6573;57.696;11.950;2023-01-30T06:08:28;29.73;;;5.33;;
13014;SDS011;6573;57.696;11.950;2023-01-30T06:11:00;29.30;;;5.07;;
13014;SDS011;6573;57.696;11.950;2023-01-30T06:13:28;27.07;;;5.03;;
13014;SDS011;6573;57.696;11.950;2023-01-30T06:15:56;22.27;;;4.37;;
13014;SDS011;6573;57.696;11.950;2023-01-30T06:18:25;25.37;;;4.70;;
13014;SDS011;6573;57.696;11.950;2023-01-30T06:20:53;26.73;;;4.60;;
13014;SDS011;6573;57.696;11.950;2023-01-30T06:23:22;23.63;;;4.77;;
13014;SDS011;6573;57.696;11.950;2023-01-30T06:25:51;22.83;;;4.13;;
13014;SDS011;6573;57.696;11.950;2023-01-30T06:28:22;23.70;;;4.57;;
13014;SDS011;6573;57.696;11.950;2023-01-30T06:30:53;30.97;;;5.53;;
13014;SDS011;6573;57.696;11.950;2023-01-30T06:33:21;23.60;;;4.40;;
13014;SDS011;6573;57.696;11.950;2023-01-30T06:35:50;24.23;;;4.40;;
13014;SDS011;6573;57.696;11.950;2023-01-30T06:38:19;28.07;;;5.43;;
13014;SDS011;6573;57.696;11.950;2023-01-30T06:40:47;20.57;;;4.37;;
13014;SDS011;6573;57.696;11.950;2023-01-30T06:43:16;22.93;;;4.70;;
13014;SDS011;6573;57.696;11.950;2023-01-30T06:45:46;27.97;;;4.10;;
13014;SDS011;6573;57.696;11.950;2023-01-30T06:48:14;29.93;;;4.67;;
13014;SDS011;6573;57.696;11.950;2023-01-30T06:50:44;33.07;;;5.10;;
13014;SDS011;6573;57.696;11.950;2023-01-30T06:53:13;30.23;;;5.30;;
13014;SDS011;6573;57.696;11.950;2023-01-30T06:55:42;21.67;;;4.83;;
13014;SDS011;6573;57.696;11.950;2023-01-30T06:58:11;29.50;;;4.33;;
13014;SDS011;6573;57.696;11.950;2023-01-30T07:00:41;22.77;;;4.73;;
13014;SDS011;6573;57.696;11.950;2023-01-30T07:03:11;15.17;;;3.60;;
13014;SDS011;6573;57.696;11.950;2023-01-30T07:05:41;25.97;;;4.67;;
13014;SDS011;6573;57.696;11.950;2023-01-30T07:08:11;15.37;;;3.17;;
13014;SDS011;6573;57.696;11.950;2023-01-30T07:10:43;17.03;;;3.70;;
13014;SDS011;6573;57.696;11.950;2023-01-30T07:13:12;17.80;;;4.10;;
13014;SDS011;6573;57.696;11.950;2023-01-30T07:15:40;20.10;;;4.00;;
13014;SDS011;6573;57.696;11.950;2023-01-30T07:18:08;19.60;;;3.60;;
13014;SDS011;6573;57.696;11.950;2023-01-30T07:20:38;16.13;;;3.97;;
13014;SDS011;6573;57.696;11.950;2023-01-30T07:23:07;18.73;;;3.77;;
13014;SDS011;6573;57.696;11.950;2023-01-30T07:25:35;23.53;;;4.07;;
13014;SDS011;6573;57.696;11.950;2023-01-30T07:28:04;15.67;;;3.50;;
13014;SDS011;6573;57.696;11.950;2023-01-30T07:30:33;21.10;;;4.30;;
13014;SDS011;6573;57.696;11.950;2023-01-30T07:33:03;18.13;;;3.90;;
13014;SDS011;6573;57.696;11.950;2023-01-30T07:35:32;27.77;;;4.10;;
13014;SDS011;6573;57.696;11.950;2023-01-30T07:38:04;24.37;;;4.43;;
13014;SDS011;6573;57.696;11.950;2023-01-30T07:40:33;24.97;;;4.13;;
13014;SDS011;6573;57.696;11.950;2023-01-30T07:43:02;24.30;;;4.53;;
13014;SDS011;6573;57.696;11.950;2023-01-30T07:45:34;25.73;;;4.70;;
13014;SDS011;6573;57.696;11.950;2023-01-30T07:48:04;20.13;;;3.97;;
13014;SDS011;6573;57.696;11.950;2023-01-30T07:50:33;27.13;;;4.20;;
13014;SDS011;6573;57.696;11.950;2023-01-30T07:53:01;22.37;;;4.27;;
13014;SDS011;6573;57.696;11.950;2023-01-30T07:55:32;21.67;;;4.13;;
13014;SDS011;6573;57.696;11.950;2023-01-30T07:58:01;18.17;;;4.47;;
13014;SDS011;6573;57.696;11.950;2023-01-30T08:00:30;19.47;;;4.07;;
13014;SDS011;6573;57.696;11.950;2023-01-30T08:02:59;20.33;;;3.60;;
13014;SDS011;6573;57.696;11.950;2023-01-30T08:05:27;20.80;;;4.37;;
13014;SDS011;6573;57.696;11.950;2023-01-30T08:07:56;25.00;;;4.07;;
13014;SDS011;6573;57.696;11.950;2023-01-30T08:10:29;23.20;;;4.13;;
13014;SDS011;6573;57.696;11.950;2023-01-30T08:12:59;18.33;;;3.60;;
13014;SDS011;6573;57.696;11.950;2023-01-30T08:15:27;18.90;;;3.53;;
13014;SDS011;6573;57.696;11.950;2023-01-30T08:17:57;24.20;;;4.23;;
13014;SDS011;6573;57.696;11.950;2023-01-30T08:20:26;22.93;;;3.87;;
13014;SDS011;6573;57.696;11.950;2023-01-30T08:22:55;24.00;;;4.43;;
13014;SDS011;6573;57.696;11.950;2023-01-30T08:25:26;30.83;;;4.60;;
13014;SDS011;6573;57.696;11.950;2023-01-30T08:27:55;20.93;;;4.17;;
13014;SDS011;6573;57.696;11.950;2023-01-30T08:30:27;28.37;;;4.67;;
13014;SDS011;6573;57.696;11.950;2023-01-30T08:32:57;23.73;;;4.63;;
13014;SDS011;6573;57.696;11.950;2023-01-30T08:35:25;23.50;;;4.73;;
13014;SDS011;6573;57.696;11.950;2023-01-30T08:37:54;24.23;;;5.17;;
13014;SDS011;6573;57.696;11.950;2023-01-30T08:40:22;21.13;;;4.00;;
13014;SDS011;6573;57.696;11.950;2023-01-30T08:42:53;13.80;;;3.60;;
13014;SDS011;6573;57.696;11.950;2023-01-30T08:45:23;28.03;;;4.40;;
13014;SDS011;6573;57.696;11.950;2023-01-30T08:47:51;20.87;;;3.83;;
13014;SDS011;6573;57.696;11.950;2023-01-30T08:50:20;22.50;;;4.10;;
13014;SDS011;6573;57.696;11.950;2023-01-30T08:52:48;18.67;;;3.67;;
13014;SDS011;6573;57.696;11.950;2023-01-30T08:55:17;24.87;;;4.10;;
13014;SDS011;6573;57.696;11.950;2023-01-30T08:57:45;21.23;;;4.53;;
13014;SDS011;6573;57.696;11.950;2023-01-30T09:00:14;17.83;;;3.43;;
13014;SDS011;6573;57.696;11.950;2023-01-30T09:02:45;19.97;;;3.60;;
13014;SDS011;6573;57.696;11.950;2023-01-30T09:05:13;19.50;;;3.77;;
13014;SDS011;6573;57.696;11.950;2023-01-30T09:07:42;17.43;;;3.70;;
13014;SDS011;6573;57.696;11.950;2023-01-30T09:10:10;19.47;;;3.90;;
13014;SDS011;6573;57.696;11.950;2023-01-30T09:12:39;15.47;;;3.23;;
13014;SDS011;6573;57.696;11.950;2023-01-30T09:15:07;15.83;;;3.17;;
13014;SDS011;6573;57.696;11.950;2023-01-30T09:17:36;17.87;;;3.70;;
13014;SDS011;6573;57.696;11.950;2023-01-30T09:20:07;16.57;;;3.67;;
13014;SDS011;6573;57.696;11.950;2023-01-30T09:22:36;16.83;;;3.20;;
13014;SDS011;6573;57.696;11.950;2023-01-30T09:25:04;19.63;;;3.63;;
13014;SDS011;6573;57.696;11.950;2023-01-30T09:27:34;18.00;;;4.03;;
13014;SDS011;6573;57.696;11.950;2023-01-30T09:30:02;18.03;;;3.70;;
13014;SDS011;6573;57.696;11.950;2023-01-30T09:32:32;22.60;;;4.27;;
13014;SDS011;6573;57.696;11.950;2023-01-30T09:35:02;20.97;;;3.70;;
13014;SDS011;6573;57.696;11.950;2023-01-30T09:37:33;23.57;;;4.37;;
13014;SDS011;6573;57.696;11.950;2023-01-30T09:40:02;15.63;;;3.50;;
13014;SDS011;6573;57.696;11.950;2023-01-30T09:42:44;17.37;;;3.43;;
13014;SDS011;6573;57.696;11.950;2023-01-30T09:45:43;20.60;;;3.30;;
13014;SDS011;6573;57.696;11.950;2023-01-30T09:48:17;17.17;;;3.30;;
13014;SDS011;6573;57.696;11.950;2023-01-30T09:54:03;10.40;;;2.83;;
13014;SDS011;6573;57.696;11.950;2023-01-30T09:56:43;17.63;;;3.40;;
13014;SDS011;6573;57.696;11.950;2023-01-30T09:59:16;17.97;;;3.70;;
13014;SDS011;6573;57.696;11.950;2023-01-30T10:01:50;15.43;;;3.30;;
13014;SDS011;6573;57.696;11.950;2023-01-30T10:04:28;20.40;;;3.70;;
13014;SDS011;6573;57.696;11.950;2023-01-30T10:07:02;20.37;;;3.80;;
13014;SDS011;6573;57.696;11.950;2023-01-30T10:09:44;13.87;;;3.30;;
13014;SDS011;6573;57.696;11.950;2023-01-30T10:12:24;22.10;;;3.27;;
13014;SDS011;6573;57.696;11.950;2023-01-30T10:15:13;18.53;;;3.43;;
13014;SDS011;6573;57.696;11.950;2023-01-30T10:17:53;16.17;;;3.30;;
13014;SDS011;6573;57.696;11.950;2023-01-30T10:20:36;13.07;;;2.90;;
13014;SDS011;6573;57.696;11.950;2023-01-30T10:23:14;14.33;;;2.70;;
13014;SDS011;6573;57.696;11.950;2023-01-30T10:25:51;17.00;;;2.73;;
13014;SDS011;6573;57.696;11.950;2023-01-30T10:28:23;17.07;;;2.73;;
13014;SDS011;6573;57.696;11.950;2023-01-30T10:30:59;12.43;;;2.60;;
13014;SDS011;6573;57.696;11.950;2023-01-30T10:33:31;14.20;;;2.73;;
13014;SDS011;6573;57.696;11.950;2023-01-30T10:36:04;15.53;;;2.90;;
13014;SDS011;6573;57.696;11.950;2023-01-30T10:38:36;15.23;;;3.10;;
13014;SDS011;6573;57.696;11.950;2023-01-30T10:41:14;10.97;;;2.40;;
13014;SDS011;6573;57.696;11.950;2023-01-30T10:43:53;16.77;;;3.07;;
13014;SDS011;6573;57.696;11.950;2023-01-30T10:46:32;14.17;;;2.93;;
13014;SDS011;6573;57.696;11.950;2023-01-30T10:49:10;13.63;;;2.67;;
13014;SDS011;6573;57.696;11.950;2023-01-30T10:51:44;14.23;;;2.50;;
13014;SDS011;6573;57.696;11.950;2023-01-30T10:54:21;14.40;;;2.67;;
13014;SDS011;6573;57.696;11.950;2023-01-30T10:56:59;13.63;;;2.63;;
13014;SDS011;6573;57.696;11.950;2023-01-30T10:59:40;8.10;;;2.00;;
13014;SDS011;6573;57.696;11.950;2023-01-30T11:02:22;10.97;;;2.10;;
13014;SDS011;6573;57.696;11.950;2023-01-30T11:04:56;11.57;;;2.30;;
13014;SDS011;6573;57.696;11.950;2023-01-30T11:07:27;9.63;;;2.10;;
13014;SDS011;6573;57.696;11.950;2023-01-30T11:09:59;9.17;;;1.93;;
13014;SDS011;6573;57.696;11.950;2023-01-30T11:12:29;16.03;;;2.70;;
13014;SDS011;6573;57.696;11.950;2023-01-30T11:14:58;10.10;;;2.70;;
13014;SDS011;6573;57.696;11.950;2023-01-30T11:17:33;11.87;;;2.43;;
13014;SDS011;6573;57.696;11.950;2023-01-30T11:20:04;15.60;;;2.70;;
13014;SDS011;6573;57.696;11.950;2023-01-30T11:22:43;12.83;;;2.83;;
13014;SDS011;6573;57.696;11.950;2023-01-30T11:25:14;12.87;;;2.60;;
13014;SDS011;6573;57.696;11.950;2023-01-30T11:27:51;11.17;;;2.03;;
13014;SDS011;6573;57.696;11.950;2023-01-30T11:30:25;8.33;;;2.27;;
13014;SDS011;6573;57.696;11.950;2023-01-30T11:33:04;13.57;;;2.20;;
13014;SDS011;6573;57.696;11.950;2023-01-30T11:35:34;10.23;;;2.37;;
13014;SDS011;6573;57.696;11.950;2023-01-30T11:38:10;8.43;;;2.10;;
13014;SDS011;6573;57.696;11.950;2023-01-30T11:40:46;11.40;;;2.60;;
13014;SDS011;6573;57.696;11.950;2023-01-30T11:43:16;11.70;;;2.13;;
13014;SDS011;6573;57.696;11.950;2023-01-30T11:45:46;16.50;;;2.33;;
13014;SDS011;6573;57.696;11.950;2023-01-30T11:48:17;12.20;;;2.40;;
13014;SDS011;6573;57.696;11.950;2023-01-30T11:51:07;9.67;;;1.97;;
13014;SDS011;6573;57.696;11.950;2023-01-30T11:53:38;12.77;;;2.50;;
13014;SDS011;6573;57.696;11.950;2023-01-30T11:56:13;12.33;;;2.33;;
13014;SDS011;6573;57.696;11.950;2023-01-30T11:58:46;13.63;;;2.70;;
13014;SDS011;6573;57.696;11.950;2023-01-30T12:01:19;11.50;;;3.00;;
13014;SDS011;6573;57.696;11.950;2023-01-30T12:03:48;16.00;;;2.80;;
13014;SDS011;6573;57.696;11.950;2023-01-30T12:06:21;12.40;;;2.33;;
13014;SDS011;6573;57.696;11.950;2023-01-30T12:08:51;10.90;;;2.23;;
13014;SDS011;6573;57.696;11.950;2023-01-30T12:11:28;13.53;;;1.90;;
13014;SDS011;6573;57.696;11.950;2023-01-30T12:14:06;8.87;;;2.10;;
13014;SDS011;6573;57.696;11.950;2023-01-30T12:16:50;11.00;;;2.00;;
13014;SDS011;6573;57.696;11.950;2023-01-30T12:19:30;15.33;;;2.40;;
13014;SDS011;6573;57.696;11.950;2023-01-30T12:22:10;12.03;;;1.97;;
13014;SDS011;6573;57.696;11.950;2023-01-30T12:24:48;13.77;;;2.37;;
13014;SDS011;6573;57.696;11.950;2023-01-30T12:27:27;11.17;;;2.20;;
13014;SDS011;6573;57.696;11.950;2023-01-30T12:30:07;13.03;;;2.57;;
13014;SDS011;6573;57.696;11.950;2023-01-30T12:32:47;10.83;;;2.57;;
13014;SDS011;6573;57.696;11.950;2023-01-30T12:35:16;16.33;;;2.30;;
13014;SDS011;6573;57.696;11.950;2023-01-30T12:37:50;14.47;;;2.77;;
13014;SDS011;6573;57.696;11.950;2023-01-30T12:40:33;12.47;;;2.60;;
13014;SDS011;6573;57.696;11.950;2023-01-30T12:43:15;13.57;;;1.97;;
13014;SDS011;6573;57.696;11.950;2023-01-30T12:46:01;14.57;;;2.13;;
13014;SDS011;6573;57.696;11.950;2023-01-30T12:51:49;14.77;;;2.50;;
13014;SDS011;6573;57.696;11.950;2023-01-30T12:54:32;11.90;;;1.90;;
13014;SDS011;6573;57.696;11.950;2023-01-30T12:57:12;15.77;;;2.40;;
13014;SDS011;6573;57.696;11.950;2023-01-30T12:59:50;15.87;;;2.83;;
13014;SDS011;6573;57.696;11.950;2023-01-30T13:02:33;15.90;;;2.83;;
13014;SDS011;6573;57.696;11.950;2023-01-30T13:05:16;14.73;;;2.40;;
13014;SDS011;6573;57.696;11.950;2023-01-30T13:07:53;15.90;;;3.60;;
13014;SDS011;6573;57.696;11.950;2023-01-30T13:10:34;22.50;;;5.13;;
13014;SDS011;6573;57.696;11.950;2023-01-30T13:13:13;19.93;;;3.40;;
13014;SDS011;6573;57.696;11.950;2023-01-30T13:15:49;8.43;;;2.40;;
13014;SDS011;6573;57.696;11.950;2023-01-30T13:18:28;14.40;;;2.37;;
13014;SDS011;6573;57.696;11.950;2023-01-30T13:21:04;14.27;;;2.67;;
13014;SDS011;6573;57.696;11.950;2023-01-30T13:23:40;19.30;;;2.77;;
13014;SDS011;6573;57.696;11.950;2023-01-30T13:26:15;13.23;;;2.57;;
13014;SDS011;6573;57.696;11.950;2023-01-30T13:28:48;14.53;;;2.60;;
13014;SDS011;6573;57.696;11.950;2023-01-30T13:31:20;15.17;;;4.67;;
13014;SDS011;6573;57.696;11.950;2023-01-30T13:33:55;15.87;;;3.10;;
13014;SDS011;6573;57.696;11.950;2023-01-30T13:36:35;17.70;;;3.60;;
13014;SDS011;6573;57.696;11.950;2023-01-30T13:39:10;13.83;;;2.60;;
13014;SDS011;6573;57.696;11.950;2023-01-30T13:41:43;13.53;;;2.40;;
13014;SDS011;6573;57.696;11.950;2023-01-30T13:44:16;15.40;;;2.47;;
13014;SDS011;6573;57.696;11.950;2023-01-30T13:46:48;13.23;;;2.47;;
13014;SDS011;6573;57.696;11.950;2023-01-30T13:49:21;12.50;;;2.57;;
13014;SDS011;6573;57.696;11.950;2023-01-30T13:51:56;10.73;;;2.33;;
13014;SDS011;6573;57.696;11.950;2023-01-30T13:54:36;21.30;;;2.83;;
13014;SDS011;6573;57.696;11.950;2023-01-30T13:57:17;13.80;;;2.60;;
13014;SDS011;6573;57.696;11.950;2023-01-30T14:00:06;12.50;;;2.80;;
13014;SDS011;6573;57.696;11.950;2023-01-30T14:09:16;15.87;;;3.37;;
13014;SDS011;6573;57.696;11.950;2023-01-30T14:11:48;12.27;;;2.80;;
13014;SDS011;6573;57.696;11.950;2023-01-30T14:14:26;17.07;;;3.63;;
13014;SDS011;6573;57.696;11.950;2023-01-30T14:17:06;19.13;;;3.63;;
13014;SDS011;6573;57.696;11.950;2023-01-30T14:19:37;9.57;;;2.77;;
13014;SDS011;6573;57.696;11.950;2023-01-30T14:22:19;13.70;;;2.70;;
13014;SDS011;6573;57.696;11.950;2023-01-30T14:37:50;14.87;;;4.73;;
13014;SDS011;6573;57.696;11.950;2023-01-30T14:40:38;11.13;;;3.50;;
13014;SDS011;6573;57.696;11.950;2023-01-30T14:49:25;19.33;;;6.73;;
13014;SDS011;6573;57.696;11.950;2023-01-30T14:51:59;8.77;;;2.40;;
13014;SDS011;6573;57.696;11.950;2023-01-30T14:54:36;10.87;;;2.47;;
13014;SDS011;6573;57.696;11.950;2023-01-30T14:57:15;8.37;;;1.93;;
13014;SDS011;6573;57.696;11.950;2023-01-30T14:59:58;6.70;;;1.70;;
13014;SDS011;6573;57.696;11.950;2023-01-30T15:05:25;10.43;;;2.33;;
13014;SDS011;6573;57.696;11.950;2023-01-30T15:08:06;13.00;;;2.30;;
13014;SDS011;6573;57.696;11.950;2023-01-30T15:10:44;9.77;;;2.37;;
13014;SDS011;6573;57.696;11.950;2023-01-30T15:13:27;10.67;;;2.40;;
13014;SDS011;6573;57.696;11.950;2023-01-30T15:16:15;8.50;;;2.07;;
13014;SDS011;6573;57.696;11.950;2023-01-30T15:19:02;12.23;;;2.17;;
13014;SDS011;6573;57.696;11.950;2023-01-30T15:21:58;17.50;;;4.03;;
13014;SDS011;6573;57.696;11.950;2023-01-30T15:24:42;12.97;;;2.97;;
13014;SDS011;6573;57.696;11.950;2023-01-30T15:27:35;12.50;;;2.70;;
13014;SDS011;6573;57.696;11.950;2023-01-30T15:30:16;17.53;;;2.83;;
13014;SDS011;6573;57.696;11.950;2023-01-30T15:32:48;11.90;;;2.47;;
13014;SDS011;6573;57.696;11.950;2023-01-30T15:35:23;7.47;;;2.23;;
13014;SDS011;6573;57.696;11.950;2023-01-30T15:37:55;14.40;;;2.87;;
13014;SDS011;6573;57.696;11.950;2023-01-30T15:40:24;13.90;;;2.83;;
13014;SDS011;6573;57.696;11.950;2023-01-30T15:43:00;12.20;;;2.20;;
13014;SDS011;6573;57.696;11.950;2023-01-30T15:45:45;5.47;;;1.73;;
13014;SDS011;6573;57.696;11.950;2023-01-30T15:48:34;10.43;;;2.10;;